Time;durP1;ratioP1;P1;durP2;ratioP2;P2;SDS_P1;SDS_P2;PMS_P1;PMS_P2;Temp;Humidity;BMP_temperature;BMP_pressure;BME280_temperature;BME280_humidity;BME280_pressure;Samples;Min_cycle;Max_cycle;Signal;HPM_P1;HPM_P2
2023/03/11 00:01:23;;;;;;;7.22;1.63;;;0.90;99.90;;;;;;4993763;28;20037;-69
2023/03/11 00:03:49;;;;;;;6.05;1.77;;;0.80;99.90;;;;;;4993623;28;20451;-69
2023/03/11 00:06:15;;;;;;;8.65;1.88;;;0.80;99.90;;;;;;4993437;28;20050;-69
2023/03/11 00:08:40;;;;;;;7.75;1.45;;;1.00;99.90;;;;;;4993614;28;20117;-69
2023/03/11 00:11:06;;;;;;;5.00;1.20;;;0.90;99.90;;;;;;4993396;28;20046;-69
2023/03/11 00:13:32;;;;;;;5.40;1.40;;;0.90;99.90;;;;;;4993505;28;20097;-69
2023/03/11 00:16:00;;;;;;;8.25;1.30;;;0.90;99.90;;;;;;4993181;28;20507;-69
2023/03/11 00:18:30;;;;;;;5.03;1.30;;;1.00;99.90;;;;;;4993217;28;20050;-69
2023/03/11 00:20:57;;;;;;;5.25;1.30;;;1.00;99.90;;;;;;4993157;28;20088;-69
2023/03/11 00:23:24;;;;;;;5.10;1.25;;;0.90;99.90;;;;;;4993346;28;20042;-69
2023/03/11 00:25:50;;;;;;;8.80;1.73;;;0.90;99.90;;;;;;4993101;28;20089;-69
2023/03/11 00:28:16;;;;;;;8.73;1.80;;;0.90;99.90;;;;;;4993408;28;20073;-69
2023/03/11 00:30:43;;;;;;;10.40;1.60;;;1.00;99.90;;;;;;4976770;28;20092;-69
2023/03/11 00:33:11;;;;;;;7.60;1.50;;;0.90;99.90;;;;;;4992974;28;20052;-69
2023/03/11 00:35:37;;;;;;;7.55;1.52;;;0.90;99.90;;;;;;4992799;28;20097;-69
2023/03/11 00:38:05;;;;;;;10.80;1.80;;;1.00;99.90;;;;;;4993228;28;20042;-69
2023/03/11 00:40:32;;;;;;;12.02;2.10;;;0.90;99.90;;;;;;4992872;28;20099;-69
2023/03/11 00:42:58;;;;;;;8.95;1.30;;;0.80;99.90;;;;;;4976526;28;20045;-69
2023/03/11 00:45:26;;;;;;;7.25;1.58;;;0.90;99.90;;;;;;4992797;28;20042;-69
2023/03/11 00:47:52;;;;;;;5.72;1.85;;;0.80;99.90;;;;;;4976018;28;20415;-69
2023/03/11 00:50:24;;;;;;;10.60;1.88;;;0.90;99.90;;;;;;4992980;28;20053;-69
2023/03/11 00:52:50;;;;;;;6.05;1.38;;;0.80;99.90;;;;;;4992656;28;20377;-69
2023/03/11 00:55:20;;;;;;;11.57;1.67;;;0.90;99.90;;;;;;4992709;28;20034;-69
2023/03/11 00:57:46;;;;;;;7.13;1.40;;;0.90;99.90;;;;;;4992581;28;20038;-69
2023/03/11 01:00:17;;;;;;;10.63;1.85;;;0.90;99.90;;;;;;4992611;28;20049;-69
2023/03/11 01:02:42;;;;;;;10.35;1.70;;;0.90;99.90;;;;;;4992479;28;20045;-69
2023/03/11 01:05:09;;;;;;;4.32;1.20;;;1.00;99.90;;;;;;4992523;28;20030;-69
2023/03/11 01:07:34;;;;;;;5.28;1.40;;;0.90;99.90;;;;;;4992788;28;20507;-69
2023/03/11 01:10:00;;;;;;;7.97;1.35;;;1.00;99.90;;;;;;4992533;28;20133;-69
2023/03/11 01:12:26;;;;;;;4.85;1.17;;;1.00;99.90;;;;;;4992406;28;20046;-70
2023/03/11 01:14:51;;;;;;;5.03;1.25;;;1.00;99.90;;;;;;4992735;28;20038;-69
2023/03/11 01:17:17;;;;;;;8.90;1.33;;;1.00;99.90;;;;;;4992366;28;20391;-69
2023/03/11 01:19:43;;;;;;;7.38;1.38;;;1.00;99.90;;;;;;4992442;28;20045;-69
2023/03/11 01:22:09;;;;;;;6.35;1.20;;;1.00;99.90;;;;;;4992660;28;20395;-69
2023/03/11 01:24:35;;;;;;;6.93;1.38;;;1.10;99.90;;;;;;4992363;28;20598;-69
2023/03/11 01:27:01;;;;;;;4.85;1.15;;;1.00;99.90;;;;;;4992369;28;20108;-69
2023/03/11 01:29:26;;;;;;;5.30;1.40;;;1.00;99.90;;;;;;4992573;28;20201;-69
2023/03/11 01:31:52;;;;;;;7.32;1.55;;;1.00;99.90;;;;;;4992290;28;20491;-69
2023/03/11 01:34:17;;;;;;;5.95;1.05;;;1.00;99.90;;;;;;4992185;28;20046;-69
2023/03/11 01:36:43;;;;;;;7.35;1.20;;;1.00;99.90;;;;;;4992352;28;20125;-69
2023/03/11 01:39:09;;;;;;;7.05;1.17;;;1.00;99.90;;;;;;4992503;28;20507;-69
2023/03/11 01:41:34;;;;;;;7.00;1.05;;;1.00;99.90;;;;;;4992165;28;20043;-69
2023/03/11 01:44:00;;;;;;;6.70;1.20;;;1.00;99.90;;;;;;4992366;28;20038;-69
2023/03/11 01:46:50;;;;;;;7.13;1.00;;;1.00;99.90;;;;;;4992136;28;20517;-69
2023/03/11 01:49:16;;;;;;;5.25;1.10;;;1.00;99.90;;;;;;4947830;28;20050;-69
2023/03/11 01:51:47;;;;;;;5.30;1.30;;;1.00;99.90;;;;;;4992131;28;20475;-69
2023/03/11 01:54:17;;;;;;;8.68;1.10;;;1.00;99.90;;;;;;4992122;28;20125;-69
2023/03/11 01:56:44;;;;;;;5.32;1.30;;;1.00;99.90;;;;;;4992030;28;20034;-69
2023/03/11 01:59:14;;;;;;;5.75;0.90;;;1.00;99.90;;;;;;4994213;28;20145;-69
2023/03/11 02:01:57;;;;;;;6.43;1.10;;;1.00;99.90;;;;;;4995810;28;20042;-69
2023/03/11 02:04:23;;;;;;;6.50;1.10;;;1.00;99.90;;;;;;4995696;28;20539;-69
2023/03/11 02:06:49;;;;;;;3.38;0.98;;;1.00;99.90;;;;;;4995903;28;20129;-69
2023/03/11 02:09:14;;;;;;;7.63;1.10;;;1.00;99.90;;;;;;4995606;28;20042;-69
2023/03/11 02:11:40;;;;;;;2.65;1.00;;;1.00;99.90;;;;;;4995576;28;20038;-69
2023/03/11 02:14:07;;;;;;;5.35;0.98;;;1.00;99.90;;;;;;4979506;28;20053;-69
2023/03/11 02:16:33;;;;;;;8.98;1.17;;;1.00;99.90;;;;;;4995396;28;20499;-69
2023/03/11 02:19:09;;;;;;;4.57;0.98;;;1.00;99.90;;;;;;4995455;28;20077;-69
2023/03/11 02:21:35;;;;;;;5.53;1.13;;;1.00;99.90;;;;;;4995459;28;20130;-69
2023/03/11 02:24:11;;;;;;;4.70;1.00;;;1.00;99.90;;;;;;4995282;28;20184;-69
2023/03/11 02:26:55;;;;;;;6.78;1.08;;;1.00;99.90;;;;;;4979060;28;20517;-69
2023/03/11 02:29:22;;;;;;;6.85;1.05;;;1.00;99.90;;;;;;4995252;28;20043;-69
2023/03/11 02:31:48;;;;;;;6.38;0.90;;;1.00;99.90;;;;;;4979281;28;20568;-69
2023/03/11 02:34:29;;;;;;;4.13;0.60;;;1.00;99.90;;;;;;4995042;28;20049;-69
2023/03/11 02:36:56;;;;;;;5.88;0.90;;;1.00;99.90;;;;;;4995084;28;20038;-69
2023/03/11 02:39:40;;;;;;;6.45;0.90;;;1.00;99.90;;;;;;4995645;28;20038;-69
2023/03/11 02:42:23;;;;;;;6.15;1.20;;;1.00;99.90;;;;;;4995024;28;20045;-69
2023/03/11 02:44:54;;;;;;;6.63;1.10;;;0.90;99.90;;;;;;4994928;28;20474;-69
2023/03/11 02:47:20;;;;;;;6.43;1.13;;;0.90;99.90;;;;;;4994954;28;20084;-69
2023/03/11 02:49:46;;;;;;;4.13;0.68;;;0.80;99.90;;;;;;4994872;28;20073;-69
2023/03/11 02:52:12;;;;;;;3.60;0.85;;;0.80;99.90;;;;;;4994862;28;20042;-69
2023/03/11 02:54:37;;;;;;;4.80;0.80;;;0.80;99.90;;;;;;4978522;28;20096;-69
2023/03/11 02:57:03;;;;;;;6.43;0.90;;;0.80;99.90;;;;;;4994648;28;20043;-69
2023/03/11 02:59:29;;;;;;;8.27;1.05;;;0.80;99.90;;;;;;4994694;28;20084;-69
2023/03/11 03:01:55;;;;;;;4.65;0.80;;;0.70;99.90;;;;;;4994610;28;20042;-69
2023/03/11 03:04:20;;;;;;;5.68;0.95;;;0.80;99.90;;;;;;4978348;28;20034;-69
2023/03/11 03:06:46;;;;;;;6.47;0.90;;;0.70;99.90;;;;;;4994600;28;20038;-69
2023/03/11 03:09:11;;;;;;;4.88;1.10;;;0.60;99.90;;;;;;4994543;28;20086;-69
2023/03/11 03:11:37;;;;;;;4.85;1.10;;;0.60;99.90;;;;;;4993950;28;20110;-69
2023/03/11 03:14:03;;;;;;;3.30;0.75;;;0.50;99.90;;;;;;4994656;28;20034;-69
2023/03/11 03:16:28;;;;;;;5.00;0.82;;;0.50;99.90;;;;;;4994313;28;20491;-69
2023/03/11 03:18:54;;;;;;;4.28;1.05;;;0.40;99.90;;;;;;4994610;28;20045;-69
2023/03/11 03:21:19;;;;;;;3.85;0.70;;;0.40;99.90;;;;;;4994338;28;20038;-69
2023/03/11 03:23:45;;;;;;;5.82;1.05;;;0.30;99.90;;;;;;4994199;28;20073;-69
2023/03/11 03:26:14;;;;;;;12.77;1.10;;;0.30;99.90;;;;;;4994234;28;20042;-69
2023/03/11 03:28:40;;;;;;;3.60;0.80;;;0.30;99.90;;;;;;4994436;28;20069;-69
2023/03/11 03:31:08;;;;;;;7.03;1.10;;;0.20;99.90;;;;;;4994100;28;20485;-69
2023/03/11 03:33:33;;;;;;;4.25;1.52;;;0.20;99.90;;;;;;4993852;28;20080;-69
2023/03/11 03:35:59;;;;;;;4.15;0.90;;;0.10;99.90;;;;;;4977769;28;20069;-69
2023/03/11 03:38:25;;;;;;;9.30;0.90;;;0.10;99.90;;;;;;4994211;28;20101;-69
2023/03/11 03:40:50;;;;;;;5.70;0.73;;;0.00;99.90;;;;;;4993948;28;20535;-69
2023/03/11 03:43:16;;;;;;;9.55;0.90;;;-0.10;99.90;;;;;;4993809;28;20084;-69
2023/03/11 03:45:41;;;;;;;3.38;0.75;;;-0.10;99.90;;;;;;4993833;28;20034;-69
2023/03/11 03:48:07;;;;;;;4.32;0.93;;;-0.10;99.90;;;;;;4993761;28;20066;-69
2023/03/11 03:50:33;;;;;;;6.75;0.88;;;-0.10;99.90;;;;;;4993991;28;20034;-69
2023/03/11 03:52:58;;;;;;;3.20;0.70;;;-0.20;99.90;;;;;;4993606;28;20042;-69
2023/03/11 03:55:24;;;;;;;3.58;0.95;;;-0.30;99.90;;;;;;4993652;28;20038;-69
2023/03/11 03:57:49;;;;;;;2.72;0.80;;;-0.30;99.90;;;;;;4993532;28;20070;-69
2023/03/11 04:00:15;;;;;;;5.35;0.88;;;-0.40;99.90;;;;;;4993793;28;20053;-69
2023/03/11 04:02:41;;;;;;;5.20;1.10;;;-0.40;99.90;;;;;;4977542;28;20042;-69
2023/03/11 04:05:07;;;;;;;6.70;1.00;;;-0.50;99.90;;;;;;4993710;28;20514;-69
2023/03/11 04:07:34;;;;;;;6.03;0.90;;;-0.50;99.90;;;;;;4993411;28;20041;-69
2023/03/11 04:10:00;;;;;;;4.50;1.00;;;-0.50;99.90;;;;;;4977215;28;20042;-69
2023/03/11 04:12:26;;;;;;;7.07;0.90;;;-0.50;99.90;;;;;;4993260;28;20073;-69
2023/03/11 04:14:52;;;;;;;3.30;0.90;;;-0.60;99.90;;;;;;4993249;28;20127;-69
2023/03/11 04:17:18;;;;;;;5.10;0.95;;;-0.50;99.90;;;;;;4993153;28;20046;-69
2023/03/11 04:19:43;;;;;;;4.45;0.80;;;-0.50;99.90;;;;;;4993213;28;20086;-69
2023/03/11 04:22:09;;;;;;;6.70;1.20;;;-0.60;99.90;;;;;;4992340;28;20089;-69
2023/03/11 04:24:34;;;;;;;3.85;0.80;;;-0.60;99.90;;;;;;4976862;28;20049;-69
2023/03/11 04:27:00;;;;;;;2.55;0.80;;;-0.60;99.90;;;;;;4993062;28;20081;-69
2023/03/11 04:29:26;;;;;;;8.65;1.00;;;-0.60;99.90;;;;;;4992985;28;20125;-69
2023/03/11 04:31:51;;;;;;;6.63;1.00;;;-0.70;99.90;;;;;;4993257;28;20050;-69
2023/03/11 04:34:17;;;;;;;4.30;0.70;;;-0.70;99.90;;;;;;4994314;28;20491;-69
2023/03/11 04:36:43;;;;;;;8.10;1.13;;;-0.70;99.90;;;;;;4992809;28;20125;-69
2023/03/11 04:39:08;;;;;;;5.72;1.17;;;-0.70;99.90;;;;;;4993136;28;20042;-69
2023/03/11 04:41:34;;;;;;;4.70;0.70;;;-0.80;99.90;;;;;;4976672;28;20535;-69
2023/03/11 04:43:59;;;;;;;5.13;0.95;;;-0.80;99.90;;;;;;4993045;28;20068;-69
2023/03/11 04:46:25;;;;;;;3.97;0.80;;;-0.90;99.90;;;;;;4992790;28;20077;-69
2023/03/11 04:48:51;;;;;;;7.00;0.90;;;-0.90;99.90;;;;;;4992989;28;20105;-69
2023/03/11 04:51:16;;;;;;;3.45;0.80;;;-0.80;99.90;;;;;;4993007;28;20081;-69
2023/03/11 04:53:42;;;;;;;5.03;0.98;;;-0.90;99.90;;;;;;4992889;28;20458;-69
2023/03/11 04:56:08;;;;;;;6.53;0.90;;;-0.90;99.90;;;;;;4992553;28;20042;-69
2023/03/11 04:58:34;;;;;;;3.22;0.65;;;-0.90;99.90;;;;;;4992928;28;20061;-69
2023/03/11 05:00:59;;;;;;;4.90;0.80;;;-0.90;99.90;;;;;;4992566;28;20495;-69
2023/03/11 05:03:25;;;;;;;4.13;0.95;;;-0.90;99.90;;;;;;4992504;28;20042;-69
2023/03/11 05:05:53;;;;;;;6.63;1.15;;;-1.00;99.90;;;;;;4992541;28;20125;-69
2023/03/11 05:08:19;;;;;;;3.92;0.85;;;-1.00;99.90;;;;;;4992581;28;20053;-69
2023/03/11 05:10:44;;;;;;;6.15;0.88;;;-1.00;99.90;;;;;;4992501;28;20049;-69
2023/03/11 05:13:10;;;;;;;4.68;0.90;;;-1.00;99.90;;;;;;4992406;28;20045;-69
2023/03/11 05:15:36;;;;;;;3.13;0.75;;;-1.10;99.90;;;;;;4992412;28;20125;-69
2023/03/11 05:18:03;;;;;;;7.10;0.85;;;-1.10;99.90;;;;;;4992453;28;20084;-69
2023/03/11 05:20:30;;;;;;;3.80;0.93;;;-1.10;99.90;;;;;;4992457;28;20042;-69
2023/03/11 05:22:55;;;;;;;6.35;0.82;;;-1.10;99.90;;;;;;4992331;28;20122;-69
2023/03/11 05:25:21;;;;;;;4.57;0.90;;;-1.10;99.90;;;;;;4992349;28;20117;-69
2023/03/11 05:27:46;;;;;;;2.35;0.70;;;-1.10;99.90;;;;;;4992299;28;20046;-69
2023/03/11 05:30:14;;;;;;;5.00;0.95;;;-1.10;99.90;;;;;;4992324;28;20038;-69
2023/03/11 05:32:39;;;;;;;3.30;1.00;;;-1.20;99.90;;;;;;4992162;28;20046;-69
2023/03/11 05:35:05;;;;;;;6.38;0.93;;;-1.20;99.90;;;;;;4995855;28;20055;-69
2023/03/11 05:37:31;;;;;;;3.67;0.80;;;-1.20;99.90;;;;;;4996207;28;20030;-69
2023/03/11 05:39:57;;;;;;;3.65;0.95;;;-1.30;99.90;;;;;;4979945;28;20101;-69
2023/03/11 05:42:22;;;;;;;4.97;1.52;;;-1.30;99.90;;;;;;4996060;28;20414;-69
2023/03/11 05:44:48;;;;;;;6.15;0.95;;;-1.30;99.90;;;;;;4995993;28;20030;-69
2023/03/11 05:47:15;;;;;;;4.35;0.80;;;-1.30;99.90;;;;;;4996325;28;20042;-69
2023/03/11 05:49:41;;;;;;;2.97;0.85;;;-1.40;99.90;;;;;;4979846;28;20038;-69
2023/03/11 05:52:06;;;;;;;7.93;1.13;;;-1.30;99.90;;;;;;4995960;28;20042;-69
2023/03/11 05:54:32;;;;;;;4.65;1.00;;;-1.30;99.90;;;;;;4995843;28;20044;-69
2023/03/11 05:56:58;;;;;;;5.22;1.42;;;-1.30;99.90;;;;;;4995832;28;20037;-69
2023/03/11 05:59:24;;;;;;;1.98;0.82;;;-1.40;99.90;;;;;;4996095;28;20042;-69
2023/03/11 06:01:49;;;;;;;5.40;0.80;;;-1.40;99.90;;;;;;4995815;28;20513;-69
2023/03/11 06:04:15;;;;;;;3.72;0.88;;;-1.40;99.90;;;;;;4995631;28;20097;-69
2023/03/11 06:06:40;;;;;;;4.47;1.10;;;-1.50;99.90;;;;;;4995692;28;20117;-69
2023/03/11 06:09:10;;;;;;;3.90;1.20;;;-1.50;99.90;;;;;;4995904;28;20129;-69
2023/03/11 06:11:35;;;;;;;5.45;0.98;;;-1.50;99.90;;;;;;4979430;28;20125;-69
2023/03/11 06:14:01;;;;;;;3.83;0.88;;;-1.50;99.90;;;;;;4995520;28;20122;-69
2023/03/11 06:16:27;;;;;;;4.97;0.85;;;-1.50;99.90;;;;;;4995426;28;20038;-69
2023/03/11 06:18:52;;;;;;;4.47;0.98;;;-1.60;99.90;;;;;;4995473;28;20049;-69
2023/03/11 06:21:21;;;;;;;2.72;0.75;;;-1.70;99.90;;;;;;4995467;28;20149;-69
2023/03/11 06:23:47;;;;;;;8.20;1.30;;;-1.70;99.90;;;;;;4995281;28;20045;-69
2023/03/11 06:26:20;;;;;;;5.28;0.88;;;-1.80;99.90;;;;;;4995579;28;20038;-69
2023/03/11 06:28:47;;;;;;;4.50;1.00;;;-1.80;99.90;;;;;;4995350;28;20057;-69
2023/03/11 06:31:17;;;;;;;5.85;0.90;;;-1.80;99.90;;;;;;4995512;28;20050;-69
2023/03/11 06:33:42;;;;;;;3.55;0.90;;;-1.80;99.90;;;;;;4978735;28;20073;-69
2023/03/11 06:36:11;;;;;;;5.63;0.98;;;-2.00;99.90;;;;;;4995090;28;20070;-69
2023/03/11 06:38:36;;;;;;;5.38;1.05;;;-1.90;99.90;;;;;;4995146;28;20050;-69
2023/03/11 06:41:04;;;;;;;7.40;0.93;;;-2.00;99.90;;;;;;4995335;28;20057;-69
2023/03/11 06:43:30;;;;;;;6.38;0.90;;;-2.00;99.90;;;;;;4994984;28;20045;-69
2023/03/11 06:45:57;;;;;;;3.63;0.70;;;-1.90;99.90;;;;;;4994326;28;20061;-68
2023/03/11 06:48:23;;;;;;;6.97;1.00;;;-1.80;99.90;;;;;;4995201;28;20038;-68
2023/03/11 06:50:59;;;;;;;6.20;1.23;;;-1.80;99.90;;;;;;4978696;28;20038;-68
2023/03/11 06:53:26;;;;;;;4.15;1.02;;;-1.70;99.90;;;;;;4994790;28;20046;-68
2023/03/11 06:56:07;;;;;;;6.03;0.80;;;-1.80;99.90;;;;;;4994724;28;20042;-69
2023/03/11 06:58:34;;;;;;;2.72;0.93;;;-1.80;99.90;;;;;;4994801;28;20042;-69
2023/03/11 07:01:01;;;;;;;4.97;1.10;;;-1.80;99.90;;;;;;4994719;28;20034;-69
2023/03/11 07:03:27;;;;;;;4.22;1.00;;;-1.70;99.90;;;;;;4994569;28;20536;-69
2023/03/11 07:05:53;;;;;;;6.75;0.90;;;-1.60;99.90;;;;;;4994883;28;20042;-69
2023/03/11 07:08:18;;;;;;;4.43;0.90;;;-1.50;99.90;;;;;;4994827;28;20090;-69
2023/03/11 07:10:44;;;;;;;3.65;1.35;;;-1.40;99.90;;;;;;4994821;28;20144;-69
2023/03/11 07:13:10;;;;;;;6.55;1.40;;;-1.40;99.90;;;;;;4994625;28;20440;-68
2023/03/11 07:15:36;;;;;;;8.02;1.15;;;-1.30;99.90;;;;;;4994432;28;20459;-69
2023/03/11 07:18:01;;;;;;;5.05;1.13;;;-1.20;99.90;;;;;;4994332;28;20037;-68
2023/03/11 07:20:27;;;;;;;6.72;1.10;;;-1.20;99.90;;;;;;4994584;28;20566;-69
2023/03/11 07:22:52;;;;;;;4.80;1.10;;;-1.10;99.90;;;;;;4994265;28;20495;-69
2023/03/11 07:25:18;;;;;;;6.53;1.33;;;-1.10;99.90;;;;;;4994259;28;20046;-69
2023/03/11 07:27:44;;;;;;;2.67;0.95;;;-1.00;99.90;;;;;;4994480;28;20034;-69
2023/03/11 07:30:10;;;;;;;3.92;1.08;;;-1.00;99.90;;;;;;4994169;28;20477;-69
2023/03/11 07:32:35;;;;;;;4.93;1.30;;;-0.90;99.90;;;;;;4994158;28;20052;-69
2023/03/11 07:35:01;;;;;;;8.65;1.20;;;-0.90;99.90;;;;;;4994079;28;20128;-69
2023/03/11 07:37:27;;;;;;;8.85;1.15;;;-0.80;99.90;;;;;;4994013;28;20070;-69
2023/03/11 07:39:52;;;;;;;5.65;1.10;;;-0.70;99.90;;;;;;4994048;28;20384;-69
2023/03/11 07:42:18;;;;;;;3.72;1.10;;;-0.70;99.90;;;;;;4994362;28;20137;-69
2023/03/11 07:44:43;;;;;;;6.45;1.38;;;-0.60;99.90;;;;;;4994114;28;20438;-69
2023/03/11 07:47:09;;;;;;;5.65;1.13;;;-0.50;99.90;;;;;;4994396;28;20042;-69
2023/03/11 07:49:35;;;;;;;4.90;1.02;;;-0.50;99.90;;;;;;4993913;28;20046;-69
2023/03/11 07:52:00;;;;;;;7.38;1.30;;;-0.40;99.90;;;;;;4993696;28;20049;-69
2023/03/11 07:54:26;;;;;;;7.80;1.20;;;-0.40;99.90;;;;;;4993574;28;20048;-69
2023/03/11 07:56:52;;;;;;;5.57;1.23;;;-0.40;99.90;;;;;;4993627;28;20038;-69
2023/03/11 07:59:17;;;;;;;5.97;1.20;;;-0.20;99.90;;;;;;4977387;28;20415;-70
2023/03/11 08:01:46;;;;;;;6.97;1.00;;;-0.20;99.90;;;;;;4993971;28;20035;-69
2023/03/11 08:04:12;;;;;;;10.23;1.42;;;-0.10;99.90;;;;;;4977292;28;20084;-69
2023/03/11 08:06:40;;;;;;;4.65;1.05;;;-0.10;99.90;;;;;;4977244;28;20042;-69
2023/03/11 08:09:07;;;;;;;5.00;1.20;;;0.00;99.90;;;;;;4993378;28;20109;-69
2023/03/11 08:11:34;;;;;;;7.38;1.30;;;0.10;99.90;;;;;;4977212;28;20042;-69
2023/03/11 08:13:59;;;;;;;5.10;1.20;;;0.20;99.90;;;;;;4993271;28;20121;-69
2023/03/11 08:16:25;;;;;;;7.72;1.30;;;0.20;99.90;;;;;;4993204;28;20134;-69
2023/03/11 08:18:52;;;;;;;6.15;1.23;;;0.30;99.90;;;;;;4993260;28;20077;-69
2023/03/11 08:21:21;;;;;;;7.13;1.70;;;0.40;99.90;;;;;;4993168;28;20570;-69
2023/03/11 08:23:47;;;;;;;5.53;1.25;;;0.50;99.90;;;;;;4993060;28;20451;-69
2023/03/11 08:26:15;;;;;;;9.20;1.80;;;0.60;99.90;;;;;;4993120;28;20395;-69
2023/03/11 08:28:42;;;;;;;4.88;1.25;;;0.70;99.90;;;;;;4993423;28;20081;-69
2023/03/11 08:31:19;;;;;;;8.05;1.52;;;1.30;99.90;;;;;;4993048;28;20073;-69
2023/03/11 08:33:48;;;;;;;5.75;1.25;;;2.70;99.90;;;;;;4993141;28;20125;-69
2023/03/11 08:36:15;;;;;;;8.27;1.40;;;4.20;99.90;;;;;;4992910;28;20035;-69
2023/03/11 08:38:41;;;;;;;9.05;1.63;;;5.60;99.90;;;;;;4993262;28;20111;-69
2023/03/11 08:41:07;;;;;;;9.15;1.63;;;6.80;99.90;;;;;;4993018;28;20042;-69
2023/03/11 08:43:32;;;;;;;8.60;1.30;;;7.80;99.80;;;;;;4993250;28;20439;-69
2023/03/11 08:46:05;;;;;;;7.38;1.42;;;8.60;96.10;;;;;;4993088;28;20510;-69
2023/03/11 08:48:31;;;;;;;5.78;1.10;;;9.30;93.30;;;;;;4992751;28;20129;-69
2023/03/11 08:50:57;;;;;;;9.13;2.15;;;9.80;91.70;;;;;;4992699;28;20051;-69
2023/03/11 08:53:23;;;;;;;6.30;1.90;;;10.30;89.90;;;;;;4992645;28;20125;-69
2023/03/11 08:55:50;;;;;;;10.95;1.38;;;10.80;86.80;;;;;;4992852;28;20189;-69
2023/03/11 08:58:16;;;;;;;8.23;1.20;;;11.20;83.50;;;;;;4992640;28;20050;-69
2023/03/11 09:00:42;;;;;;;3.70;0.98;;;11.60;81.40;;;;;;4992858;28;20495;-69
2023/03/11 09:03:07;;;;;;;5.10;1.45;;;12.00;80.10;;;;;;4992482;28;20177;-70
2023/03/11 09:05:33;;;;;;;5.45;1.08;;;12.40;78.30;;;;;;4992774;28;20057;-70
2023/03/11 09:07:59;;;;;;;7.18;1.40;;;12.60;76.10;;;;;;4992031;28;20503;-70
2023/03/11 09:10:24;;;;;;;6.28;1.73;;;13.00;75.10;;;;;;4992727;28;20048;-70
2023/03/11 09:12:50;;;;;;;8.10;1.23;;;13.20;73.90;;;;;;4992384;28;20038;-70
2023/03/11 09:15:17;;;;;;;6.75;1.17;;;13.50;72.90;;;;;;4992387;28;20100;-70
2023/03/11 09:17:43;;;;;;;6.18;2.03;;;13.90;71.30;;;;;;4992335;28;20550;-70
2023/03/11 09:20:12;;;;;;;7.10;1.75;;;14.10;70.50;;;;;;4993458;28;20038;-70
2023/03/11 09:22:37;;;;;;;8.60;1.35;;;14.30;69.50;;;;;;4992331;28;20050;-70
2023/03/11 09:25:03;;;;;;;5.38;1.45;;;14.60;68.50;;;;;;4992600;28;20125;-73
2023/03/11 09:27:28;;;;;;;5.22;1.48;;;14.80;67.50;;;;;;4992398;28;20101;-70
2023/03/11 09:29:54;;;;;;;6.95;1.38;;;15.10;66.40;;;;;;4992345;28;20050;-70
2023/03/11 09:32:20;;;;;;;5.63;1.40;;;15.30;65.70;;;;;;4992165;28;20046;-70
2023/03/11 09:34:45;;;;;;;4.00;1.10;;;15.40;64.80;;;;;;4992459;28;20046;-70
2023/03/11 09:37:11;;;;;;;4.30;1.00;;;15.70;64.10;;;;;;4992239;28;20038;-70
2023/03/11 09:39:37;;;;;;;4.40;1.35;;;15.80;63.60;;;;;;4992276;28;20038;-70
2023/03/11 09:42:41;;;;;;;4.90;1.38;;;15.90;62.80;;;;;;4992247;28;20046;-70
2023/03/11 09:45:27;;;;;;;7.18;1.45;;;16.20;62.70;;;;;;4991311;28;20463;-70
2023/03/11 09:48:24;;;;;;;7.75;1.13;;;16.20;61.20;;;;;;4992237;28;20093;-70
2023/03/11 09:50:57;;;;;;;5.88;1.35;;;16.40;61.30;;;;;;4992216;28;20121;-70
2023/03/11 09:53:48;;;;;;;10.88;1.45;;;16.50;60.60;;;;;;4992606;28;20049;-70
2023/03/11 09:56:17;;;;;;;8.93;1.13;;;16.50;61.10;;;;;;4992116;28;20519;-70
2023/03/11 09:59:16;;;;;;;4.22;1.55;;;16.50;59.90;;;;;;4992093;28;20043;-70
2023/03/11 10:01:45;;;;;;;4.80;1.20;;;16.40;60.00;;;;;;4991545;28;20132;-70
2023/03/11 10:04:17;;;;;;;6.18;1.30;;;16.60;59.30;;;;;;4992212;28;20042;-70
2023/03/11 10:06:45;;;;;;;6.47;1.55;;;16.60;59.00;;;;;;4992069;28;20042;-70
2023/03/11 10:09:11;;;;;;;6.20;1.10;;;16.60;58.60;;;;;;4992021;28;20053;-70
2023/03/11 10:11:50;;;;;;;4.20;1.30;;;16.50;58.00;;;;;;4992277;28;20042;-70
2023/03/11 10:14:43;;;;;;;3.70;0.90;;;16.30;58.30;;;;;;4975657;28;20543;-70
2023/03/11 10:17:20;;;;;;;5.80;1.13;;;16.40;58.60;;;;;;4975740;28;20042;-70
2023/03/11 10:19:52;;;;;;;5.53;1.00;;;16.60;58.20;;;;;;4992238;28;20046;-70
2023/03/11 10:22:41;;;;;;;4.22;0.85;;;16.70;57.60;;;;;;4995256;28;20034;-70
2023/03/11 10:25:25;;;;;;;4.07;1.10;;;16.60;57.00;;;;;;4995422;28;20410;-70
2023/03/11 10:27:58;;;;;;;6.88;1.20;;;16.30;56.70;;;;;;4995389;28;20491;-70
2023/03/11 10:30:48;;;;;;;4.43;1.02;;;16.20;57.50;;;;;;4995369;28;20055;-70
2023/03/11 10:33:42;;;;;;;5.75;1.27;;;16.10;59.00;;;;;;4995129;28;20101;-70
2023/03/11 10:36:16;;;;;;;10.40;1.10;;;15.80;57.80;;;;;;4982357;28;20137;-69
2023/03/11 10:38:48;;;;;;;4.25;0.98;;;15.40;58.80;;;;;;4995647;28;20054;-73
2023/03/11 10:41:20;;;;;;;4.97;1.13;;;15.10;59.40;;;;;;4978962;28;20049;-72
2023/03/11 10:44:08;;;;;;;6.30;1.27;;;14.90;60.80;;;;;;4995005;28;20101;-72
2023/03/11 10:46:34;;;;;;;5.38;1.73;;;14.70;60.50;;;;;;4994965;28;20125;-69
2023/03/11 10:49:00;;;;;;;5.93;1.35;;;14.30;61.30;;;;;;4994958;28;20113;-69
2023/03/11 10:51:34;;;;;;;5.38;1.25;;;14.20;62.10;;;;;;4994935;28;20046;-69
2023/03/11 10:54:02;;;;;;;6.25;1.30;;;13.90;62.30;;;;;;4978855;28;20049;-71
2023/03/11 10:56:32;;;;;;;7.15;1.23;;;13.60;62.90;;;;;;4994785;28;20049;-73
2023/03/11 10:58:58;;;;;;;3.85;1.13;;;13.40;63.60;;;;;;4994798;28;20078;-69
2023/03/11 11:01:25;;;;;;;6.93;1.23;;;13.00;64.10;;;;;;4994670;28;20092;-68
2023/03/11 11:03:56;;;;;;;4.78;1.30;;;12.90;64.90;;;;;;4994987;28;20037;-69
2023/03/11 11:06:30;;;;;;;6.78;1.30;;;12.80;65.50;;;;;;4994718;28;20129;-68
2023/03/11 11:09:08;;;;;;;6.28;1.30;;;12.50;65.40;;;;;;4994561;28;20050;-68
2023/03/11 11:11:38;;;;;;;7.22;1.30;;;12.30;66.70;;;;;;4994713;28;20034;-68
2023/03/11 11:14:04;;;;;;;4.45;0.95;;;12.00;66.90;;;;;;4994459;28;20053;-73
2023/03/11 11:16:32;;;;;;;6.55;1.10;;;11.80;67.50;;;;;;4994570;28;20049;-72
2023/03/11 11:19:03;;;;;;;5.25;0.90;;;11.90;68.20;;;;;;4978308;28;20042;-72
2023/03/11 11:21:38;;;;;;;8.07;0.95;;;11.90;68.50;;;;;;4994428;28;20085;-72
2023/03/11 11:24:15;;;;;;;4.45;1.30;;;11.90;67.60;;;;;;4994270;28;20045;-73
2023/03/11 11:26:41;;;;;;;4.03;0.90;;;11.70;67.90;;;;;;4994473;28;20042;-68
2023/03/11 11:29:10;;;;;;;6.15;0.93;;;11.30;68.70;;;;;;4994118;28;20407;-68
2023/03/11 11:31:43;;;;;;;5.70;1.25;;;11.10;69.10;;;;;;4993709;28;20049;-68
2023/03/11 11:34:26;;;;;;;6.65;1.05;;;11.00;69.70;;;;;;4993933;28;20100;-68
2023/03/11 11:36:56;;;;;;;4.20;1.00;;;10.80;68.70;;;;;;4977821;28;20521;-68
2023/03/11 11:39:23;;;;;;;4.80;1.15;;;10.80;70.50;;;;;;4993949;28;20051;-68
2023/03/11 11:41:50;;;;;;;2.72;0.70;;;11.00;70.60;;;;;;4994229;28;20045;-68
2023/03/11 11:44:19;;;;;;;4.15;0.90;;;11.20;70.30;;;;;;4994085;28;20206;-68
2023/03/11 11:47:31;;;;;;;7.82;1.25;;;11.20;69.50;;;;;;4994569;28;20046;-68
2023/03/11 11:50:03;;;;;;;7.15;1.10;;;11.00;69.50;;;;;;4993236;28;20527;-68
2023/03/11 11:52:41;;;;;;;5.03;0.98;;;11.20;70.10;;;;;;4977519;28;20042;-69
2023/03/11 11:55:19;;;;;;;6.07;0.93;;;11.70;70.80;;;;;;4994017;28;20053;-68
2023/03/11 11:57:45;;;;;;;5.43;0.90;;;12.10;69.70;;;;;;4993482;28;20165;-68
2023/03/11 12:00:19;;;;;;;8.95;0.80;;;12.40;69.70;;;;;;4993570;28;20046;-68
2023/03/11 12:03:14;;;;;;;6.57;1.23;;;12.50;68.50;;;;;;4993536;28;20549;-69
2023/03/11 12:06:01;;;;;;;5.30;0.80;;;12.50;67.20;;;;;;4994047;28;20121;-68
2023/03/11 12:08:49;;;;;;;4.03;1.00;;;11.90;65.90;;;;;;4993710;28;20065;-68
2023/03/11 12:11:35;;;;;;;4.85;0.88;;;11.80;68.10;;;;;;4993696;28;20086;-68
2023/03/11 12:14:34;;;;;;;4.85;0.85;;;11.70;68.40;;;;;;4993334;28;20129;-69
2023/03/11 12:17:01;;;;;;;4.82;1.10;;;11.80;69.10;;;;;;4961457;28;20069;-69
2023/03/11 12:19:37;;;;;;;7.78;0.75;;;11.90;70.00;;;;;;4993245;28;20039;-69
2023/03/11 12:22:09;;;;;;;5.28;0.70;;;12.00;68.10;;;;;;4993288;28;20078;-69
2023/03/11 12:25:02;;;;;;;4.80;0.88;;;12.30;68.30;;;;;;4993330;28;20125;-69
2023/03/11 12:28:18;;;;;;;5.25;0.70;;;12.60;67.70;;;;;;4976975;28;20046;-69
2023/03/11 12:30:51;;;;;;;2.55;0.52;;;12.90;65.40;;;;;;4899676;29;20525;-69
2023/03/11 12:33:29;;;;;;;5.95;0.60;;;13.20;65.50;;;;;;4987676;28;20066;-69
2023/03/11 12:35:57;;;;;;;5.25;0.90;;;13.40;64.70;;;;;;4976795;28;20042;-69
2023/03/11 12:38:31;;;;;;;4.40;0.52;;;13.30;64.00;;;;;;4992959;28;20042;-69
2023/03/11 12:41:14;;;;;;;6.65;0.80;;;13.20;62.80;;;;;;4992949;28;20521;-69
2023/03/11 12:43:40;;;;;;;4.22;0.68;;;13.30;63.40;;;;;;4992166;28;20042;-69
2023/03/11 12:46:08;;;;;;;5.68;0.50;;;12.90;63.40;;;;;;4992805;28;20124;-69
2023/03/11 12:49:12;;;;;;;2.40;0.47;;;12.70;63.20;;;;;;4992795;28;20042;-69
2023/03/11 12:51:39;;;;;;;4.50;0.60;;;12.40;62.60;;;;;;4899343;29;20044;-69
2023/03/11 12:54:55;;;;;;;4.03;0.60;;;12.10;63.30;;;;;;4975657;28;20475;-70
2023/03/11 12:57:20;;;;;;;4.45;0.90;;;12.00;61.50;;;;;;4899188;29;20048;-69
2023/03/11 13:00:17;;;;;;;4.63;1.00;;;11.90;65.10;;;;;;4982528;28;20057;-70
2023/03/11 13:03:15;;;;;;;3.92;0.65;;;12.00;64.00;;;;;;4992762;28;20038;-70